Time;durP1;ratioP1;P1;durP2;ratioP2;P2;SDS_P1;SDS_P2;PMS_P1;PMS_P2;Temp;Humidity;BMP_temperature;BMP_pressure;BME280_temperature;BME280_humidity;BME280_pressure;Samples;Min_cycle;Max_cycle;Signal;HPM_P1;HPM_P2
2024/01/18 00:02:10;;;;;;;5.40;4.33;;;2.80;99.90;;;;;;5054680;28;20234;-77
2024/01/18 00:04:36;;;;;;;6.03;4.30;;;2.90;99.90;;;;;;5054697;28;20201;-77
2024/01/18 00:07:02;;;;;;;6.57;4.57;;;2.90;99.90;;;;;;5054132;28;20673;-77
2024/01/18 00:09:28;;;;;;;6.27;5.30;;;2.90;99.90;;;;;;5055276;28;20168;-80
2024/01/18 00:11:54;;;;;;;5.90;4.87;;;3.00;99.90;;;;;;5057800;28;20635;-78
2024/01/18 00:14:19;;;;;;;5.87;4.30;;;3.00;99.90;;;;;;5056140;28;20207;-77
2024/01/18 00:16:46;;;;;;;5.70;4.43;;;3.00;99.90;;;;;;5054563;28;20273;-77
2024/01/18 00:19:11;;;;;;;4.50;4.10;;;3.00;99.90;;;;;;5053449;28;20173;-80
2024/01/18 00:21:38;;;;;;;9.27;4.90;;;2.90;99.90;;;;;;5053166;28;20639;-76
2024/01/18 00:24:05;;;;;;;8.40;5.40;;;2.80;99.90;;;;;;5054658;28;20576;-77
2024/01/18 00:26:31;;;;;;;4.80;4.30;;;2.90;99.90;;;;;;5054835;28;20556;-78
2024/01/18 00:28:57;;;;;;;9.13;4.50;;;2.90;99.90;;;;;;5055218;28;20178;-78
2024/01/18 00:31:23;;;;;;;9.07;5.63;;;2.90;99.90;;;;;;5064634;28;20203;-77
2024/01/18 00:33:49;;;;;;;6.20;4.93;;;2.90;99.90;;;;;;5053246;28;20180;-79
2024/01/18 00:36:14;;;;;;;6.27;5.20;;;2.90;99.90;;;;;;5054484;28;20183;-78
2024/01/18 00:38:41;;;;;;;8.27;4.93;;;3.20;99.90;;;;;;5057669;28;20281;-78
2024/01/18 00:41:08;;;;;;;6.37;5.17;;;2.80;99.90;;;;;;5053806;28;20309;-79
2024/01/18 00:43:33;;;;;;;7.83;5.27;;;2.80;99.90;;;;;;5053239;28;20263;-78
2024/01/18 00:46:04;;;;;;;7.27;5.00;;;2.90;99.90;;;;;;5052871;28;20636;-78
2024/01/18 00:48:30;;;;;;;6.37;4.90;;;2.90;99.90;;;;;;5054756;28;20210;-76
2024/01/18 00:50:56;;;;;;;7.30;4.40;;;3.00;99.90;;;;;;5056400;28;20202;-79
2024/01/18 00:53:22;;;;;;;5.33;4.47;;;3.00;99.90;;;;;;5056264;28;20197;-80
2024/01/18 00:55:47;;;;;;;5.97;4.90;;;3.00;99.90;;;;;;5052957;28;20865;-76
2024/01/18 00:58:13;;;;;;;8.67;5.37;;;3.10;99.90;;;;;;5053080;28;20180;-79
2024/01/18 01:00:39;;;;;;;8.03;5.97;;;3.00;99.90;;;;;;5052877;28;20168;-77
2024/01/18 01:03:05;;;;;;;6.33;5.20;;;2.90;99.90;;;;;;5052731;28;20172;-80
2024/01/18 01:05:31;;;;;;;7.40;5.40;;;3.00;99.90;;;;;;5053587;28;20651;-78
2024/01/18 01:07:57;;;;;;;7.87;4.70;;;2.80;99.90;;;;;;5051666;28;20333;-77
2024/01/18 01:10:22;;;;;;;7.13;4.87;;;3.50;99.90;;;;;;5054487;28;20182;-78
2024/01/18 01:12:48;;;;;;;6.73;4.80;;;2.80;99.90;;;;;;5058746;28;20219;-77
2024/01/18 01:15:14;;;;;;;6.93;4.43;;;2.90;99.90;;;;;;5057109;28;20714;-77
2024/01/18 01:17:40;;;;;;;4.93;3.90;;;2.90;99.90;;;;;;5054818;28;20190;-79
2024/01/18 01:20:10;;;;;;;6.07;3.93;;;2.80;99.90;;;;;;5053722;28;20181;-79
2024/01/18 01:22:36;;;;;;;7.80;4.40;;;2.90;99.90;;;;;;5051447;28;20268;-79
2024/01/18 01:25:02;;;;;;;5.37;4.33;;;2.80;99.90;;;;;;5050965;28;20722;-78
2024/01/18 01:27:28;;;;;;;7.93;4.87;;;2.90;99.90;;;;;;5053007;28;20235;-81
2024/01/18 01:29:53;;;;;;;6.33;4.57;;;3.00;99.90;;;;;;5053844;28;20184;-80
2024/01/18 01:32:19;;;;;;;8.43;4.70;;;2.90;99.90;;;;;;5054137;28;20221;-79
2024/01/18 01:34:45;;;;;;;8.50;4.87;;;2.90;99.90;;;;;;5053071;28;20170;-77
2024/01/18 01:37:12;;;;;;;5.57;4.27;;;2.80;99.90;;;;;;5051716;28;20661;-76
2024/01/18 01:39:38;;;;;;;5.63;4.67;;;3.00;99.90;;;;;;5052334;28;20226;-79
2024/01/18 01:42:04;;;;;;;6.37;4.53;;;2.90;99.90;;;;;;5052062;28;20582;-79
2024/01/18 01:44:30;;;;;;;4.03;3.63;;;2.90;99.90;;;;;;5052975;28;20202;-78
2024/01/18 01:46:55;;;;;;;8.90;4.93;;;2.50;99.90;;;;;;5052989;28;20244;-76
2024/01/18 01:49:22;;;;;;;4.87;4.10;;;3.00;99.90;;;;;;5052857;28;20625;-75
2024/01/18 01:51:49;;;;;;;5.93;4.00;;;3.10;99.90;;;;;;5055892;28;20202;-78
2024/01/18 01:54:19;;;;;;;8.57;4.73;;;3.10;99.90;;;;;;5058277;28;20172;-75
2024/01/18 01:56:46;;;;;;;5.57;4.00;;;3.10;99.90;;;;;;5057501;28;20210;-77
2024/01/18 01:59:13;;;;;;;4.63;4.00;;;3.00;99.90;;;;;;5057881;28;20191;-78
2024/01/18 02:01:41;;;;;;;5.70;4.50;;;3.10;99.90;;;;;;5068401;28;20233;-78
2024/01/18 02:04:06;;;;;;;4.07;3.77;;;2.90;99.90;;;;;;5058530;28;20206;-80
2024/01/18 02:06:34;;;;;;;5.80;4.20;;;2.80;99.90;;;;;;5052109;28;20670;-79
2024/01/18 02:09:01;;;;;;;4.60;4.20;;;3.00;99.90;;;;;;5052288;28;20497;-80
2024/01/18 02:11:28;;;;;;;4.57;3.17;;;2.80;99.90;;;;;;5051658;28;20229;-79
2024/01/18 02:13:57;;;;;;;4.23;3.60;;;3.00;99.90;;;;;;5051826;28;20242;-78
2024/01/18 02:16:23;;;;;;;5.13;4.20;;;3.10;99.90;;;;;;5051914;28;20297;-79
2024/01/18 02:18:49;;;;;;;4.20;3.80;;;3.00;99.90;;;;;;5051938;28;20815;-80
2024/01/18 02:21:15;;;;;;;4.40;3.90;;;3.00;99.90;;;;;;5051443;28;20176;-79
2024/01/18 02:23:44;;;;;;;5.40;3.90;;;3.10;99.90;;;;;;5051537;28;20266;-79
2024/01/18 02:26:10;;;;;;;5.53;4.47;;;3.10;99.90;;;;;;5051519;28;20208;-79
2024/01/18 02:28:36;;;;;;;4.70;4.10;;;3.20;99.90;;;;;;5049842;28;20174;-77
2024/01/18 02:31:01;;;;;;;4.80;4.27;;;3.20;99.90;;;;;;5052840;28;20270;-79
2024/01/18 02:33:27;;;;;;;6.30;4.67;;;3.20;99.90;;;;;;5051387;28;20234;-76
2024/01/18 02:35:54;;;;;;;6.17;4.53;;;3.20;99.90;;;;;;5059069;28;20164;-79
2024/01/18 02:38:20;;;;;;;5.93;4.20;;;3.20;99.90;;;;;;5051227;28;20676;-77
2024/01/18 02:40:46;;;;;;;4.97;4.00;;;3.20;99.90;;;;;;5050973;28;20172;-80
2024/01/18 02:43:13;;;;;;;6.63;4.17;;;3.10;99.90;;;;;;5053261;28;20243;-76
2024/01/18 02:45:38;;;;;;;4.70;3.80;;;3.20;99.90;;;;;;5058268;28;20168;-79
2024/01/18 02:48:04;;;;;;;4.83;4.07;;;3.10;99.90;;;;;;5056731;28;20195;-80
2024/01/18 02:50:30;;;;;;;5.53;4.10;;;3.10;99.90;;;;;;5055507;28;20510;-80
2024/01/18 02:52:56;;;;;;;4.93;4.07;;;3.20;99.90;;;;;;5054505;28;20193;-78
2024/01/18 02:55:22;;;;;;;5.10;3.67;;;3.30;99.90;;;;;;5054467;28;20175;-79
2024/01/18 02:57:47;;;;;;;5.90;3.63;;;3.10;99.90;;;;;;5054030;28;20678;-78
2024/01/18 03:00:13;;;;;;;5.30;4.13;;;3.20;99.90;;;;;;5054716;28;20174;-80
2024/01/18 03:02:39;;;;;;;3.90;3.60;;;3.20;99.90;;;;;;5056579;28;20189;-79
2024/01/18 03:05:05;;;;;;;4.20;3.90;;;3.40;99.90;;;;;;5056237;28;20636;-78
2024/01/18 03:07:33;;;;;;;4.73;3.43;;;3.50;99.90;;;;;;5060926;28;20208;-78
2024/01/18 03:09:59;;;;;;;4.53;3.70;;;3.40;99.90;;;;;;5060727;28;20177;-78
2024/01/18 03:12:24;;;;;;;4.10;3.70;;;3.60;99.90;;;;;;5053790;28;20351;-78
2024/01/18 03:14:50;;;;;;;3.80;3.50;;;3.50;99.90;;;;;;5054114;28;20202;-79
2024/01/18 03:17:16;;;;;;;6.20;3.60;;;3.40;99.90;;;;;;5052878;28;20195;-77
2024/01/18 03:19:42;;;;;;;4.10;3.70;;;3.40;99.90;;;;;;5054552;28;20239;-80
2024/01/18 03:22:07;;;;;;;4.07;3.20;;;3.50;99.90;;;;;;5060897;28;20214;-80
2024/01/18 03:24:33;;;;;;;4.73;3.20;;;3.50;99.90;;;;;;5055282;28;20218;-76
2024/01/18 03:26:59;;;;;;;4.13;3.13;;;3.60;99.90;;;;;;5055174;28;20210;-79
2024/01/18 03:29:25;;;;;;;4.87;3.73;;;3.60;99.90;;;;;;5054427;28;20199;-79
2024/01/18 03:31:50;;;;;;;7.53;3.73;;;3.60;99.90;;;;;;5053160;28;20199;-78
2024/01/18 03:34:16;;;;;;;3.40;3.13;;;3.60;99.90;;;;;;5054478;28;20196;-79
2024/01/18 03:36:42;;;;;;;4.70;3.47;;;4.00;99.90;;;;;;5054819;28;20172;-77
2024/01/18 03:39:09;;;;;;;4.10;2.70;;;3.50;99.90;;;;;;5055286;28;20254;-77
2024/01/18 03:41:34;;;;;;;3.37;3.07;;;3.50;99.90;;;;;;5055718;28;20200;-77
2024/01/18 03:44:00;;;;;;;3.73;3.20;;;3.60;99.90;;;;;;5057319;28;20243;-76
2024/01/18 03:46:26;;;;;;;4.13;3.20;;;3.60;99.90;;;;;;5069874;28;20236;-77
2024/01/18 03:48:51;;;;;;;3.20;2.97;;;3.60;99.90;;;;;;5057912;28;20181;-76
2024/01/18 03:51:17;;;;;;;3.53;3.23;;;3.70;99.90;;;;;;5056197;28;20212;-79
2024/01/18 03:53:43;;;;;;;3.57;2.97;;;3.90;99.90;;;;;;5054320;28;20705;-77
2024/01/18 03:56:12;;;;;;;3.60;3.30;;;4.20;99.90;;;;;;5054220;28;20192;-79
2024/01/18 03:58:39;;;;;;;7.20;3.60;;;4.00;99.90;;;;;;5054595;28;20209;-76
2024/01/18 04:01:05;;;;;;;3.33;3.03;;;3.80;99.90;;;;;;5056449;28;20229;-76
2024/01/18 04:03:30;;;;;;;3.57;3.27;;;3.80;99.90;;;;;;5055357;28;20644;-78
2024/01/18 04:05:56;;;;;;;4.13;3.43;;;3.70;99.90;;;;;;5056007;28;20623;-77
2024/01/18 04:08:23;;;;;;;3.00;2.80;;;3.80;99.90;;;;;;5055817;28;20650;-81
2024/01/18 04:10:49;;;;;;;4.07;3.10;;;3.90;99.90;;;;;;5054175;28;20206;-81
2024/01/18 04:13:14;;;;;;;3.20;2.90;;;3.70;99.90;;;;;;5054743;28;20647;-74
2024/01/18 04:15:40;;;;;;;4.30;3.10;;;3.80;99.90;;;;;;5060418;28;20200;-77
2024/01/18 04:18:06;;;;;;;3.17;2.67;;;3.70;99.90;;;;;;5059647;28;20206;-80
2024/01/18 04:20:32;;;;;;;3.40;3.10;;;3.90;99.90;;;;;;5054313;28;20624;-79
2024/01/18 04:22:58;;;;;;;4.37;3.10;;;4.00;99.90;;;;;;5053687;28;20659;-79
2024/01/18 04:25:24;;;;;;;3.53;3.23;;;4.10;99.90;;;;;;5053627;28;20179;-79
2024/01/18 04:27:50;;;;;;;4.10;3.37;;;4.00;99.90;;;;;;5057098;28;20207;-79
2024/01/18 04:30:15;;;;;;;3.27;3.07;;;3.90;99.90;;;;;;5054447;28;20176;-77
2024/01/18 04:32:41;;;;;;;3.70;3.40;;;3.90;99.90;;;;;;5072071;28;20179;-76
2024/01/18 04:35:08;;;;;;;6.33;3.47;;;4.00;99.90;;;;;;5057450;28;20540;-78
2024/01/18 04:37:33;;;;;;;5.13;3.30;;;4.10;99.90;;;;;;5058504;28;20214;-77
2024/01/18 04:39:59;;;;;;;3.83;3.43;;;3.90;99.90;;;;;;5061059;28;20605;-78
2024/01/18 04:42:26;;;;;;;3.77;3.13;;;3.90;99.90;;;;;;5057901;28;20266;-76
2024/01/18 04:44:51;;;;;;;3.70;3.40;;;4.00;99.90;;;;;;5054588;28;20226;-77
2024/01/18 04:47:17;;;;;;;5.27;3.30;;;3.90;99.90;;;;;;5054440;28;20732;-79
2024/01/18 04:49:43;;;;;;;3.30;3.10;;;4.00;99.90;;;;;;5052967;28;20171;-78
2024/01/18 04:52:10;;;;;;;5.70;3.97;;;4.10;99.90;;;;;;5053544;28;20628;-75
2024/01/18 04:54:35;;;;;;;3.33;3.07;;;4.20;99.90;;;;;;5053393;28;20172;-78
2024/01/18 04:57:02;;;;;;;3.37;3.13;;;4.10;99.90;;;;;;5056118;28;20202;-77
2024/01/18 04:59:27;;;;;;;3.43;3.13;;;4.20;99.90;;;;;;5055841;28;20406;-77
2024/01/18 05:01:54;;;;;;;5.00;3.27;;;4.20;99.90;;;;;;5052044;28;20243;-79
2024/01/18 05:04:20;;;;;;;3.60;3.20;;;4.20;99.90;;;;;;5053347;28;20612;-79
2024/01/18 05:06:46;;;;;;;3.23;2.93;;;4.10;99.90;;;;;;5052326;28;20208;-80
2024/01/18 05:09:16;;;;;;;2.90;2.70;;;4.30;99.90;;;;;;5051896;28;20183;-79
2024/01/18 05:11:42;;;;;;;3.37;3.07;;;4.30;99.90;;;;;;5051632;28;20231;-78
2024/01/18 05:14:09;;;;;;;5.43;3.47;;;4.20;99.90;;;;;;5051989;28;20184;-77
2024/01/18 05:16:39;;;;;;;3.97;3.30;;;4.20;99.90;;;;;;5052438;28;20203;-78
2024/01/18 05:19:07;;;;;;;8.13;3.10;;;4.20;99.90;;;;;;5052510;28;20290;-78
2024/01/18 05:21:33;;;;;;;3.50;3.20;;;4.10;99.90;;;;;;5052189;28;20185;-76
2024/01/18 05:23:59;;;;;;;3.70;2.83;;;4.20;99.90;;;;;;5063724;28;20203;-78
2024/01/18 05:26:24;;;;;;;3.70;3.37;;;4.40;99.90;;;;;;5053148;28;20203;-78
2024/01/18 05:28:50;;;;;;;3.43;2.80;;;4.40;99.90;;;;;;5052482;28;20263;-78
2024/01/18 05:31:16;;;;;;;3.63;2.97;;;4.50;99.90;;;;;;5052392;28;20187;-78
2024/01/18 05:33:43;;;;;;;3.47;3.17;;;4.50;99.90;;;;;;5056402;28;20260;-79
2024/01/18 05:36:08;;;;;;;3.10;2.90;;;4.50;99.90;;;;;;5060946;28;20180;-77
2024/01/18 05:38:34;;;;;;;2.90;2.70;;;4.60;99.90;;;;;;5055804;28;20256;-76
2024/01/18 05:41:00;;;;;;;3.73;3.17;;;4.60;99.90;;;;;;5054012;28;20186;-79
2024/01/18 05:43:26;;;;;;;4.03;3.00;;;4.70;99.90;;;;;;5052846;28;20190;-79
2024/01/18 05:45:51;;;;;;;4.33;3.30;;;4.50;99.90;;;;;;5050651;28;20195;-80
2024/01/18 05:48:17;;;;;;;2.80;2.53;;;4.70;99.90;;;;;;5052107;28;20794;-78
2024/01/18 05:50:43;;;;;;;2.73;2.47;;;4.70;99.90;;;;;;5051405;28;20188;-79
2024/01/18 05:53:09;;;;;;;3.10;2.90;;;4.60;99.90;;;;;;5050191;28;20172;-78
2024/01/18 05:55:35;;;;;;;2.93;2.73;;;4.60;99.90;;;;;;5050622;28;20184;-78
2024/01/18 05:58:01;;;;;;;3.00;2.70;;;4.70;99.90;;;;;;5039200;28;20181;-78
2024/01/18 06:00:26;;;;;;;3.27;2.97;;;4.70;99.90;;;;;;5057026;28;20603;-79
2024/01/18 06:02:52;;;;;;;3.67;3.20;;;4.70;99.90;;;;;;5052961;28;20744;-77
2024/01/18 06:05:18;;;;;;;4.80;3.17;;;4.80;99.90;;;;;;5054730;28;20178;-79
2024/01/18 06:07:44;;;;;;;3.00;2.80;;;4.80;99.90;;;;;;5052040;28;20209;-78
2024/01/18 06:10:10;;;;;;;3.40;3.10;;;4.70;99.90;;;;;;5051645;28;20774;-77
2024/01/18 06:12:36;;;;;;;3.97;3.37;;;4.80;99.90;;;;;;5051647;28;20252;-77
2024/01/18 06:15:02;;;;;;;3.40;3.10;;;4.60;99.90;;;;;;5037186;28;20180;-79
2024/01/18 06:17:31;;;;;;;2.93;2.73;;;4.70;99.90;;;;;;5036365;28;20548;-77
2024/01/18 06:19:56;;;;;;;5.43;2.83;;;4.70;99.90;;;;;;5058318;28;20266;-77
2024/01/18 06:22:22;;;;;;;4.27;3.00;;;4.80;99.90;;;;;;5058449;28;20173;-76
2024/01/18 06:24:51;;;;;;;4.70;3.20;;;4.70;99.90;;;;;;5063379;28;20583;-80
2024/01/18 06:27:17;;;;;;;3.60;3.20;;;4.30;99.90;;;;;;5065286;28;20213;-76
2024/01/18 06:29:42;;;;;;;3.60;2.80;;;4.80;99.90;;;;;;5061989;28;20581;-77
2024/01/18 06:32:08;;;;;;;3.53;3.23;;;4.70;99.90;;;;;;5056032;28;20318;-78
2024/01/18 06:34:34;;;;;;;3.47;3.13;;;4.60;99.90;;;;;;5056213;28;20180;-76
2024/01/18 06:37:00;;;;;;;3.93;3.00;;;4.50;99.90;;;;;;5057709;28;20207;-76
2024/01/18 06:39:26;;;;;;;4.80;3.47;;;4.50;99.90;;;;;;5062917;28;20628;-78
2024/01/18 06:41:52;;;;;;;4.47;3.47;;;4.40;99.90;;;;;;5064422;28;20183;-76
2024/01/18 06:44:18;;;;;;;7.60;3.70;;;4.50;99.90;;;;;;5057197;28;20180;-79
2024/01/18 06:46:43;;;;;;;7.33;3.40;;;4.40;99.90;;;;;;5062012;28;20207;-78
2024/01/18 06:49:10;;;;;;;5.03;3.30;;;4.60;99.90;;;;;;5059076;28;20202;-80
2024/01/18 06:51:36;;;;;;;3.30;3.00;;;4.50;99.90;;;;;;5056473;28;20373;-80
2024/01/18 06:54:02;;;;;;;5.20;3.53;;;4.60;99.90;;;;;;5058137;28;20714;-77
2024/01/18 06:56:27;;;;;;;6.30;3.63;;;4.60;99.90;;;;;;5054579;28;20206;-79
2024/01/18 06:58:53;;;;;;;3.73;3.20;;;4.60;99.90;;;;;;5047293;28;20653;-80
2024/01/18 07:01:19;;;;;;;4.83;3.47;;;4.60;99.90;;;;;;5036015;28;20234;-78
2024/01/18 07:03:45;;;;;;;3.47;3.17;;;4.60;99.90;;;;;;5042718;28;20200;-80
2024/01/18 07:06:11;;;;;;;3.37;3.17;;;4.50;99.90;;;;;;5056397;28;20201;-78
2024/01/18 07:08:37;;;;;;;3.40;3.20;;;4.60;99.90;;;;;;5056308;28;20557;-78
2024/01/18 07:11:04;;;;;;;4.53;3.40;;;4.60;99.90;;;;;;5055423;28;20183;-77
2024/01/18 07:13:29;;;;;;;4.57;2.73;;;4.50;99.90;;;;;;5055050;28;20337;-78
2024/01/18 07:15:55;;;;;;;3.30;3.00;;;4.70;99.90;;;;;;5052511;28;20663;-78
2024/01/18 07:18:21;;;;;;;5.33;3.43;;;4.70;99.90;;;;;;5054536;28;20177;-76
2024/01/18 07:20:47;;;;;;;3.20;3.00;;;4.70;99.90;;;;;;5055703;28;20225;-76
2024/01/18 07:23:15;;;;;;;3.70;3.30;;;4.70;99.90;;;;;;5061309;28;20663;-78
2024/01/18 07:25:41;;;;;;;3.20;2.90;;;4.70;99.90;;;;;;5063286;28;20197;-77
2024/01/18 07:28:07;;;;;;;3.70;3.20;;;4.70;99.90;;;;;;5063527;28;20176;-77
2024/01/18 07:30:33;;;;;;;4.40;3.37;;;4.90;99.90;;;;;;5071541;28;20181;-78
2024/01/18 07:32:59;;;;;;;4.10;3.50;;;4.80;99.90;;;;;;5060554;28;20273;-78
2024/01/18 07:35:24;;;;;;;4.27;3.50;;;4.80;99.90;;;;;;5056402;28;20632;-80
2024/01/18 07:37:50;;;;;;;3.57;3.27;;;4.80;99.90;;;;;;5056313;28;20202;-79
2024/01/18 07:40:16;;;;;;;4.10;3.27;;;4.80;99.90;;;;;;5056472;28;20174;-76
2024/01/18 07:42:43;;;;;;;3.30;3.00;;;4.90;99.90;;;;;;5058468;28;20177;-79
2024/01/18 07:45:11;;;;;;;3.60;3.30;;;4.90;99.90;;;;;;5055767;28;20173;-79
2024/01/18 07:47:37;;;;;;;3.50;3.20;;;4.80;99.90;;;;;;5055337;28;20219;-80
2024/01/18 07:50:02;;;;;;;3.37;3.03;;;4.80;99.90;;;;;;5055131;28;20168;-76
2024/01/18 07:52:28;;;;;;;4.47;3.50;;;4.80;99.90;;;;;;5055005;28;20739;-76
2024/01/18 07:54:54;;;;;;;3.60;3.20;;;5.00;99.90;;;;;;5056062;28;20174;-76
2024/01/18 07:57:20;;;;;;;4.20;3.23;;;5.10;99.90;;;;;;5055552;28;20179;-76
2024/01/18 07:59:45;;;;;;;4.53;3.50;;;5.10;99.90;;;;;;5061357;28;20177;-77
2024/01/18 08:02:11;;;;;;;4.07;3.67;;;5.10;99.90;;;;;;5061051;28;20203;-76
2024/01/18 08:04:37;;;;;;;5.37;3.40;;;5.10;99.90;;;;;;5058718;28;20629;-79
2024/01/18 08:07:03;;;;;;;3.40;3.10;;;5.20;99.90;;;;;;5055282;28;20935;-79
2024/01/18 08:09:29;;;;;;;3.37;3.17;;;5.20;99.90;;;;;;5053678;28;20186;-78
2024/01/18 08:11:54;;;;;;;3.47;3.17;;;5.30;99.90;;;;;;5052623;28;20219;-79
2024/01/18 08:14:20;;;;;;;5.73;3.33;;;5.30;99.90;;;;;;5054540;28;20162;-77
2024/01/18 08:16:46;;;;;;;5.00;3.20;;;5.30;99.90;;;;;;5054506;28;20230;-76
2024/01/18 08:19:12;;;;;;;3.50;3.20;;;6.30;99.90;;;;;;5053196;28;20188;-77
2024/01/18 08:21:43;;;;;;;4.17;3.10;;;5.30;99.90;;;;;;5055809;28;20192;-79
2024/01/18 08:24:09;;;;;;;2.97;2.77;;;5.40;99.90;;;;;;5058530;28;20184;-79
2024/01/18 08:26:35;;;;;;;3.07;2.87;;;5.50;99.90;;;;;;5053132;28;20587;-79
2024/01/18 08:29:01;;;;;;;3.30;3.10;;;5.40;99.90;;;;;;5053062;28;20185;-78
2024/01/18 08:31:28;;;;;;;4.50;4.10;;;5.50;99.90;;;;;;5053461;28;20169;-78
2024/01/18 08:33:53;;;;;;;4.30;3.20;;;5.50;99.90;;;;;;5033546;28;20187;-78
2024/01/18 08:36:19;;;;;;;2.83;2.60;;;5.60;99.90;;;;;;5033083;28;20299;-76
2024/01/18 08:38:45;;;;;;;4.50;3.10;;;5.70;99.90;;;;;;5052776;28;20193;-79
2024/01/18 08:41:11;;;;;;;3.20;2.93;;;5.70;99.90;;;;;;5051693;28;20185;-77
2024/01/18 08:43:37;;;;;;;4.10;3.40;;;5.70;99.90;;;;;;5053489;28;20181;-77
2024/01/18 08:46:06;;;;;;;3.67;3.37;;;5.70;99.90;;;;;;5053035;28;20177;-77
2024/01/18 08:48:35;;;;;;;4.47;3.33;;;5.70;99.90;;;;;;5053604;28;20202;-77
2024/01/18 08:51:02;;;;;;;4.57;3.53;;;5.70;99.90;;;;;;5056210;28;20253;-79
2024/01/18 08:53:28;;;;;;;3.87;3.37;;;5.90;99.90;;;;;;5052451;28;20269;-76
2024/01/18 08:55:54;;;;;;;3.40;3.10;;;6.00;99.90;;;;;;5052416;28;20177;-78
2024/01/18 08:58:20;;;;;;;6.50;3.40;;;5.70;99.90;;;;;;5053444;28;20594;-77
2024/01/18 09:00:45;;;;;;;4.03;3.40;;;6.00;99.90;;;;;;5053206;28;20203;-78
2024/01/18 09:03:11;;;;;;;3.60;3.00;;;6.10;99.90;;;;;;5052096;28;20242;-78
2024/01/18 09:05:37;;;;;;;4.50;3.63;;;6.20;99.90;;;;;;5053449;28;20194;-79
2024/01/18 09:08:06;;;;;;;4.87;3.10;;;4.90;99.90;;;;;;5055467;28;20559;-78
2024/01/18 09:10:31;;;;;;;3.47;2.90;;;6.20;99.90;;;;;;5055094;28;20172;-78
2024/01/18 09:12:57;;;;;;;3.93;3.50;;;6.30;99.90;;;;;;5056349;28;20264;-79
2024/01/18 09:15:24;;;;;;;4.40;3.47;;;6.30;99.90;;;;;;5063038;28;20214;-77
2024/01/18 09:17:51;;;;;;;3.63;3.30;;;6.40;99.90;;;;;;5064971;28;20164;-78
2024/01/18 09:20:17;;;;;;;3.93;2.93;;;6.50;99.90;;;;;;5053720;28;20171;-78
2024/01/18 09:22:43;;;;;;;5.30;3.43;;;6.60;99.90;;;;;;5053067;28;20186;-76
2024/01/18 09:25:09;;;;;;;4.13;3.73;;;;;;;;;;5052905;28;20168;-78
2024/01/18 09:27:35;;;;;;;5.60;3.53;;;6.70;99.90;;;;;;5053694;28;20219;-79
2024/01/18 09:30:00;;;;;;;4.60;3.93;;;6.80;99.90;;;;;;5053023;28;20695;-79
2024/01/18 09:32:26;;;;;;;2.97;2.77;;;7.00;99.90;;;;;;5051918;28;20673;-79
2024/01/18 09:34:52;;;;;;;3.67;2.87;;;6.80;99.90;;;;;;5053313;28;20535;-76
2024/01/18 09:37:17;;;;;;;3.30;2.83;;;7.90;99.90;;;;;;5061138;28;20180;-77
2024/01/18 09:39:45;;;;;;;3.33;3.00;;;7.00;99.90;;;;;;5061976;28;20176;-77
2024/01/18 09:42:17;;;;;;;6.17;3.60;;;7.00;99.90;;;;;;5052961;28;20272;-79
2024/01/18 09:44:47;;;;;;;3.30;3.10;;;7.10;99.90;;;;;;5052587;28;20178;-75
2024/01/18 09:47:17;;;;;;;3.33;2.90;;;7.30;99.90;;;;;;5052985;28;20206;-76
2024/01/18 09:49:45;;;;;;;4.10;3.10;;;7.30;99.90;;;;;;5061149;28;20159;-78
2024/01/18 09:52:12;;;;;;;4.00;3.00;;;7.10;99.90;;;;;;5052249;28;20733;-79
2024/01/18 09:54:39;;;;;;;3.63;2.60;;;7.00;99.90;;;;;;5051159;28;20179;-78
2024/01/18 09:57:08;;;;;;;3.63;3.17;;;7.10;99.90;;;;;;5052283;28;20179;-78
2024/01/18 09:59:36;;;;;;;3.23;2.83;;;7.00;99.90;;;;;;5053093;28;20516;-80
2024/01/18 10:02:03;;;;;;;6.70;3.10;;;7.00;99.90;;;;;;5051776;28;20178;-78
2024/01/18 10:04:31;;;;;;;4.93;2.90;;;7.00;99.90;;;;;;5051319;28;20195;-78
2024/01/18 10:06:57;;;;;;;9.67;3.73;;;6.90;99.90;;;;;;5052549;28;20615;-76
2024/01/18 10:09:23;;;;;;;3.30;3.00;;;7.10;99.90;;;;;;5052613;28;20183;-76
2024/01/18 10:11:48;;;;;;;4.40;2.80;;;7.00;99.90;;;;;;5053026;28;20230;-77
2024/01/18 10:14:14;;;;;;;3.67;3.23;;;7.00;99.90;;;;;;5054221;28;20193;-75
2024/01/18 10:16:41;;;;;;;2.93;2.73;;;7.20;99.90;;;;;;5069060;28;20197;-75
2024/01/18 10:19:14;;;;;;;3.70;3.40;;;7.40;99.90;;;;;;5063463;28;20184;-77
2024/01/18 10:21:41;;;;;;;4.30;3.73;;;7.30;99.90;;;;;;5053148;28;20616;-79
2024/01/18 10:24:17;;;;;;;5.90;3.80;;;7.10;99.90;;;;;;5052461;28;20554;-76
2024/01/18 10:26:43;;;;;;;4.40;3.53;;;7.10;99.90;;;;;;5052449;28;20773;-77
2024/01/18 10:29:09;;;;;;;3.97;3.67;;;7.20;99.90;;;;;;5053296;28;20255;-78
2024/01/18 10:31:41;;;;;;;3.63;3.33;;;7.20;99.90;;;;;;5052894;28;20182;-76
2024/01/18 10:34:07;;;;;;;4.93;3.97;;;6.90;99.90;;;;;;5053146;28;20218;-76
2024/01/18 10:36:33;;;;;;;4.23;3.53;;;7.20;99.90;;;;;;5053325;28;20232;-78
2024/01/18 10:39:17;;;;;;;6.23;3.97;;;7.10;99.90;;;;;;5052515;28;20181;-79
2024/01/18 10:41:44;;;;;;;11.80;7.13;;;7.20;99.90;;;;;;5052421;28;20179;-80
2024/01/18 10:44:10;;;;;;;13.77;8.17;;;6.90;99.90;;;;;;5052402;28;20531;-78
2024/01/18 10:46:36;;;;;;;12.27;8.20;;;7.00;99.90;;;;;;5051529;28;20197;-81
2024/01/18 10:49:03;;;;;;;11.73;8.00;;;7.10;99.90;;;;;;5051356;28;20187;-80
2024/01/18 10:51:29;;;;;;;16.60;9.07;;;7.00;99.90;;;;;;5051807;28;20175;-78
2024/01/18 10:53:56;;;;;;;15.13;8.93;;;7.20;99.90;;;;;;5055532;28;20230;-79
2024/01/18 10:56:23;;;;;;;14.20;8.97;;;7.60;99.90;;;;;;5052190;28;20175;-78
2024/01/18 10:58:49;;;;;;;15.30;9.43;;;7.50;99.90;;;;;;5051949;28;20189;-79
2024/01/18 11:01:17;;;;;;;13.50;9.03;;;7.40;99.90;;;;;;5055717;28;20215;-78
2024/01/18 11:03:44;;;;;;;18.23;9.47;;;7.10;99.90;;;;;;5067957;28;20214;-77
2024/01/18 11:06:12;;;;;;;20.73;10.93;;;7.40;99.90;;;;;;5071917;28;20294;-78
2024/01/18 11:08:39;;;;;;;19.53;9.70;;;7.30;99.90;;;;;;5063952;28;20246;-78
2024/01/18 11:11:06;;;;;;;13.80;9.30;;;7.20;99.90;;;;;;5056726;28;20184;-79
2024/01/18 11:13:33;;;;;;;19.97;10.10;;;7.20;99.90;;;;;;5057987;28;20255;-76
2024/01/18 11:15:59;;;;;;;18.63;10.90;;;8.30;99.90;;;;;;5063653;28;20188;-77
2024/01/18 11:18:25;;;;;;;19.63;10.63;;;7.50;99.90;;;;;;5063509;28;20621;-78
2024/01/18 11:21:08;;;;;;;20.37;10.73;;;7.60;99.90;;;;;;5060170;28;20176;-76
2024/01/18 11:23:36;;;;;;;14.23;9.27;;;7.50;99.90;;;;;;5055886;28;20255;-74
2024/01/18 11:26:04;;;;;;;16.57;9.10;;;7.50;99.90;;;;;;5055658;28;20195;-78
2024/01/18 11:28:31;;;;;;;16.27;9.43;;;7.40;99.90;;;;;;5053718;28;20637;-79
2024/01/18 11:30:57;;;;;;;17.53;9.40;;;7.40;99.90;;;;;;5055078;28;20175;-77
2024/01/18 11:33:24;;;;;;;12.47;8.80;;;7.20;99.90;;;;;;5055428;28;20175;-77
2024/01/18 11:35:50;;;;;;;15.67;9.23;;;7.30;99.90;;;;;;5055615;28;20635;-77
2024/01/18 11:38:18;;;;;;;13.23;9.27;;;7.20;99.90;;;;;;5055066;28;20176;-79
2024/01/18 11:40:44;;;;;;;11.93;8.80;;;7.30;99.90;;;;;;5055488;28;20262;-77
2024/01/18 11:43:11;;;;;;;15.47;8.70;;;7.20;99.90;;;;;;5055055;28;20329;-79
2024/01/18 11:45:37;;;;;;;17.23;8.57;;;7.20;99.90;;;;;;5055412;28;20213;-78
2024/01/18 11:48:03;;;;;;;13.57;8.23;;;7.50;99.90;;;;;;5056771;28;20236;-75
2024/01/18 11:50:29;;;;;;;12.07;8.17;;;7.50;99.90;;;;;;5067821;28;20171;-75
2024/01/18 11:52:55;;;;;;;9.03;7.10;;;7.60;99.90;;;;;;5068636;28;20593;-76
2024/01/18 11:55:23;;;;;;;8.43;6.43;;;7.60;99.90;;;;;;5058564;28;20180;-77
2024/01/18 11:57:52;;;;;;;9.60;6.67;;;7.70;99.90;;;;;;5058446;28;20173;-77
2024/01/18 12:00:19;;;;;;;7.40;6.03;;;7.60;99.90;;;;;;5055828;28;20175;-79
2024/01/18 12:02:45;;;;;;;8.03;5.83;;;7.80;99.90;;;;;;5055545;28;20181;-79
2024/01/18 12:05:11;;;;;;;7.30;5.50;;;7.80;99.90;;;;;;5055054;28;20257;-79
2024/01/18 12:07:38;;;;;;;8.20;5.43;;;8.00;99.90;;;;;;5053960;28;20265;-79
2024/01/18 12:10:06;;;;;;;8.57;5.37;;;7.90;99.90;;;;;;5055935;28;20184;-78
2024/01/18 12:12:32;;;;;;;8.37;6.20;;;7.90;99.90;;;;;;5064209;28;20220;-79
2024/01/18 12:14:59;;;;;;;8.27;5.90;;;7.80;99.90;;;;;;5052458;28;20192;-76
2024/01/18 12:17:26;;;;;;;6.83;6.10;;;7.80;99.90;;;;;;5054585;28;20654;-78
2024/01/18 12:19:52;;;;;;;11.13;6.57;;;7.80;99.90;;;;;;5054580;28;20182;-77
2024/01/18 12:22:19;;;;;;;5.97;5.37;;;7.80;99.90;;;;;;5054547;28;20178;-77
2024/01/18 12:24:49;;;;;;;6.87;6.03;;;8.20;99.90;;;;;;5054463;28;20254;-77
2024/01/18 12:27:15;;;;;;;9.93;5.97;;;7.90;99.90;;;;;;5054748;28;20660;-75
2024/01/18 12:29:42;;;;;;;5.90;5.33;;;7.90;99.90;;;;;;5053882;28;20191;-79
2024/01/18 12:32:11;;;;;;;7.17;5.77;;;7.70;99.90;;;;;;5053929;28;20211;-78
2024/01/18 12:34:37;;;;;;;6.07;5.43;;;7.80;99.90;;;;;;5053529;28;20659;-78
2024/01/18 12:37:04;;;;;;;6.43;5.83;;;7.70;99.90;;;;;;5053530;28;20168;-77
2024/01/18 12:39:31;;;;;;;7.73;5.70;;;7.80;99.90;;;;;;5055953;28;20206;-77
2024/01/18 12:41:57;;;;;;;11.13;6.27;;;7.90;99.90;;;;;;5057654;28;20210;-78
2024/01/18 12:44:24;;;;;;;6.17;5.57;;;7.80;99.90;;;;;;5053711;28;20176;-78
2024/01/18 12:46:51;;;;;;;5.80;5.20;;;7.70;99.90;;;;;;5054595;28;20691;-77
2024/01/18 12:49:18;;;;;;;6.37;5.60;;;7.80;99.90;;;;;;5054541;28;20182;-78
2024/01/18 12:51:53;;;;;;;9.63;5.90;;;7.70;99.90;;;;;;5060452;28;20645;-78